createdAt,value
2023-02-04T00:00:23.716Z,97944.00
2023-02-04T00:02:51.328Z,97944.38
2023-02-04T00:05:20.067Z,97947.81
2023-02-04T00:07:47.663Z,97980.63
2023-02-04T00:10:15.221Z,98018.44
2023-02-04T00:12:42.729Z,98051.97
2023-02-04T00:15:10.986Z,98045.38
2023-02-04T00:17:39.474Z,98038.66
2023-02-04T00:20:07.189Z,98064.84
2023-02-04T00:22:34.740Z,98083.38
2023-02-04T00:25:02.260Z,98078.47
2023-02-04T00:27:29.860Z,98086.69
2023-02-04T00:29:57.883Z,98084.03
2023-02-04T00:32:25.587Z,98117.63
2023-02-04T00:34:55.123Z,98108.28
2023-02-04T00:37:22.723Z,98126.16
2023-02-04T00:39:50.952Z,98137.03
2023-02-04T00:42:18.910Z,98146.75
2023-02-04T00:44:46.441Z,98156.97
2023-02-04T00:47:14.013Z,98162.06
2023-02-04T00:49:41.735Z,98170.47
2023-02-04T00:52:09.352Z,98172.13
2023-02-04T00:54:37.049Z,98180.03
2023-02-04T00:57:04.766Z,98217.31
2023-02-04T00:59:32.223Z,98217.31
2023-02-04T01:02:00.592Z,98235.03
2023-02-04T01:04:30.002Z,98234.72
2023-02-04T01:06:57.611Z,98233.72
2023-02-04T01:09:25.285Z,98255.25
2023-02-04T01:11:52.906Z,98262.97
2023-02-04T01:14:20.572Z,98269.84
2023-02-04T01:16:48.483Z,98276.59
2023-02-04T01:19:16.528Z,98285.94
2023-02-04T01:21:44.796Z,98277.09
2023-02-04T01:24:12.278Z,98281.03
2023-02-04T01:26:58.074Z,98299.75
2023-02-04T01:29:25.680Z,98312.41
2023-02-04T01:31:53.124Z,98317.84
2023-02-04T01:34:20.670Z,98308.41
2023-02-04T01:36:48.931Z,98328.31
2023-02-04T01:39:18.296Z,98331.56
2023-02-04T01:41:47.811Z,98348.50
2023-02-04T01:44:15.672Z,98357.97
2023-02-04T01:46:43.310Z,98346.09
2023-02-04T01:49:11.594Z,98361.03
2023-02-04T01:51:39.875Z,98373.81
2023-02-04T01:54:11.829Z,98382.88
2023-02-04T01:56:43.162Z,98378.28
2023-02-04T01:59:16.055Z,98394.25
2023-02-04T02:01:49.046Z,98400.94
2023-02-04T02:04:19.807Z,98413.56
2023-02-04T02:06:59.315Z,98415.06
2023-02-04T02:09:27.754Z,98435.75
2023-02-04T02:11:55.309Z,98440.78
2023-02-04T02:14:23.357Z,98443.63
2023-02-04T02:16:51.308Z,98437.00
2023-02-04T02:19:27.487Z,98446.75
2023-02-04T02:22:33.743Z,98451.72
2023-02-04T02:25:01.388Z,98467.59
2023-02-04T02:27:28.846Z,98484.13
2023-02-04T02:29:58.832Z,98485.31
2023-02-04T02:32:26.436Z,98480.06
2023-02-04T02:34:53.926Z,98493.84
2023-02-04T02:37:21.613Z,98518.47
2023-02-04T02:39:49.023Z,98521.78
2023-02-04T02:42:19.448Z,98534.38
2023-02-04T02:44:50.072Z,98539.84
2023-02-04T02:47:20.230Z,98555.72
2023-02-04T02:49:53.353Z,98576.09
2023-02-04T02:52:21.300Z,98584.78
2023-02-04T02:54:49.308Z,98574.19
2023-02-04T02:57:21.682Z,98582.06
2023-02-04T02:59:49.560Z,98588.94
2023-02-04T03:02:22.201Z,98583.28
2023-02-04T03:04:54.982Z,98602.47
2023-02-04T03:07:26.719Z,98603.97
2023-02-04T03:09:54.577Z,98608.47
2023-02-04T03:12:22.238Z,98612.84
2023-02-04T03:14:50.148Z,98620.03
2023-02-04T03:17:18.040Z,98623.03
2023-02-04T03:19:47.174Z,98638.41
2023-02-04T03:22:15.253Z,98660.50
2023-02-04T03:24:42.826Z,98677.31
2023-02-04T03:27:10.918Z,98682.47
2023-02-04T03:29:45.594Z,98683.25
2023-02-04T03:32:13.201Z,98686.28
2023-02-04T03:34:40.653Z,98689.16
2023-02-04T03:37:08.555Z,98696.88
2023-02-04T03:39:36.153Z,98700.72
2023-02-04T03:42:03.710Z,98714.94
2023-02-04T03:44:31.195Z,98728.94
2023-02-04T03:47:00.193Z,98741.94
2023-02-04T03:49:28.597Z,98746.38
2023-02-04T03:51:56.025Z,98748.75
2023-02-04T03:54:23.595Z,98759.25
2023-02-04T03:56:51.114Z,98773.38
2023-02-04T03:59:18.717Z,98794.09
2023-02-04T04:01:46.209Z,98802.47
2023-02-04T04:04:13.806Z,98800.56
2023-02-04T04:06:41.360Z,98809.38
2023-02-04T04:09:08.745Z,98828.28
2023-02-04T04:11:36.445Z,98823.44
2023-02-04T04:14:03.977Z,98835.59
2023-02-04T04:16:31.567Z,98840.97
2023-02-04T04:18:59.118Z,98853.13
2023-02-04T04:21:26.587Z,98860.03
2023-02-04T04:23:54.056Z,98867.91
2023-02-04T04:26:21.684Z,98859.09
2023-02-04T04:28:49.246Z,98879.81
2023-02-04T04:31:16.936Z,98883.63
2023-02-04T04:33:44.504Z,98900.06
2023-02-04T04:36:12.055Z,98896.34
2023-02-04T04:38:39.639Z,98900.88
2023-02-04T04:41:07.187Z,98916.78
2023-02-04T04:43:34.570Z,98914.69
2023-02-04T04:46:02.072Z,98925.72
2023-02-04T04:48:29.573Z,98939.81
2023-02-04T04:50:58.402Z,98948.09
2023-02-04T04:53:25.907Z,98944.19
2023-02-04T04:55:53.436Z,98948.22
2023-02-04T04:58:20.937Z,98952.47
2023-02-04T05:00:48.561Z,98961.88
2023-02-04T05:03:16.177Z,98969.47
2023-02-04T05:05:44.435Z,98967.22
2023-02-04T05:08:14.246Z,98971.38
2023-02-04T05:10:42.202Z,98981.88
2023-02-04T05:13:10.484Z,98991.66
2023-02-04T05:15:38.207Z,98994.69
2023-02-04T05:18:05.764Z,99000.19
2023-02-04T05:20:33.623Z,98998.84
2023-02-04T05:23:01.927Z,99008.06
2023-02-04T05:25:30.662Z,99013.41
2023-02-04T05:27:58.174Z,99021.28
2023-02-04T05:30:25.864Z,99020.97
2023-02-04T05:36:59.751Z,99032.00
2023-02-04T05:39:28.033Z,99038.50
2023-02-04T05:41:55.503Z,99046.22
2023-02-04T05:44:23.014Z,99051.22
2023-02-04T05:46:50.508Z,99054.78
2023-02-04T05:49:18.021Z,99066.09
2023-02-04T05:51:45.489Z,99060.59
2023-02-04T05:54:19.448Z,99077.69
2023-02-04T05:56:47.761Z,99082.66
2023-02-04T05:59:15.414Z,99087.06
2023-02-04T06:01:43.103Z,99094.41
2023-02-04T06:04:10.738Z,99094.41
2023-02-04T06:06:38.281Z,99112.63
2023-02-04T06:09:05.752Z,99108.63
2023-02-04T06:11:33.269Z,99123.50
2023-02-04T06:14:00.790Z,99121.38
2023-02-04T06:16:28.338Z,99130.63
2023-02-04T06:18:55.806Z,99138.22
2023-02-04T06:21:23.296Z,99145.47
2023-02-04T06:23:52.011Z,99152.19
2023-02-04T06:26:19.492Z,99155.19
2023-02-04T06:28:46.974Z,99166.75
2023-02-04T06:31:14.502Z,99173.16
2023-02-04T06:33:42.185Z,99174.38
2023-02-04T06:36:09.704Z,99188.47
2023-02-04T06:38:37.068Z,99198.25
2023-02-04T06:41:04.770Z,99193.00
2023-02-04T06:43:32.281Z,99197.66
2023-02-04T06:45:59.858Z,99207.66
2023-02-04T06:48:27.418Z,99206.84
2023-02-04T06:50:55.099Z,99210.28
2023-02-04T06:53:22.577Z,99217.81
2023-02-04T06:55:50.160Z,99229.59
2023-02-04T06:58:17.552Z,99231.97
2023-02-04T07:00:45.150Z,99240.63
2023-02-04T07:03:12.549Z,99241.59
2023-02-04T07:05:40.064Z,99251.94
2023-02-04T07:08:07.551Z,99253.56
2023-02-04T07:10:35.258Z,99260.16
2023-02-04T07:13:02.863Z,99266.66
2023-02-04T07:15:31.737Z,99275.25
2023-02-04T07:17:59.428Z,99278.69
2023-02-04T07:20:26.984Z,99279.50
2023-02-04T07:22:54.474Z,99295.25
2023-02-04T07:25:21.990Z,99291.91
2023-02-04T07:27:49.531Z,99293.72
2023-02-04T07:30:17.341Z,99299.44
2023-02-04T07:32:44.730Z,99291.22
2023-02-04T07:35:12.760Z,99304.22
2023-02-04T07:37:40.244Z,99305.53
2023-02-04T07:40:08.059Z,99309.91
2023-02-04T07:42:35.538Z,99310.41
2023-02-04T07:45:11.004Z,99308.50
2023-02-04T07:47:38.580Z,99319.69
2023-02-04T07:50:06.457Z,99317.44
2023-02-04T07:52:33.953Z,99332.41
2023-02-04T07:55:01.396Z,99324.06
2023-02-04T07:57:30.158Z,99335.75
2023-02-04T07:59:57.645Z,99331.78
2023-02-04T08:02:25.681Z,99338.91
2023-02-04T08:04:53.407Z,99347.50
2023-02-04T08:07:20.956Z,99339.38
2023-02-04T08:09:48.337Z,99362.00
2023-02-04T08:12:15.864Z,99367.72
2023-02-04T08:14:43.436Z,99369.25
2023-02-04T08:17:10.927Z,99376.50
2023-02-04T08:19:38.306Z,99374.63
2023-02-04T08:22:06.192Z,99380.81
2023-02-04T08:24:33.914Z,99392.25
2023-02-04T08:27:01.700Z,99386.16
2023-02-04T08:29:29.099Z,99386.25
2023-02-04T08:31:56.696Z,99386.81
2023-02-04T08:34:24.195Z,99387.66
2023-02-04T08:36:51.691Z,99405.91
2023-02-04T08:39:19.273Z,99401.81
2023-02-04T08:41:46.802Z,99405.88
2023-02-04T08:44:14.162Z,99406.91
2023-02-04T08:46:41.709Z,99413.00
2023-02-04T08:49:09.522Z,99417.59
2023-02-04T08:51:37.069Z,99429.81
2023-02-04T08:54:04.541Z,99428.16
2023-02-04T08:56:32.017Z,99422.41
2023-02-04T08:58:59.432Z,99435.88
2023-02-04T09:01:27.030Z,99430.53
2023-02-04T09:03:54.443Z,99432.50
2023-02-04T09:06:21.888Z,99444.16
2023-02-04T09:08:49.456Z,99442.91
2023-02-04T09:11:16.921Z,99443.09
2023-02-04T09:13:44.370Z,99453.09
2023-02-04T09:16:11.879Z,99456.78
2023-02-04T09:18:39.337Z,99452.09
2023-02-04T09:21:06.758Z,99462.78
2023-02-04T09:23:34.191Z,99457.59
2023-02-04T09:26:01.684Z,99461.50
2023-02-04T09:28:29.060Z,99462.66
2023-02-04T09:30:56.668Z,99473.16
2023-02-04T09:33:24.173Z,99469.13
2023-02-04T09:35:51.610Z,99481.13
2023-02-04T09:38:19.088Z,99486.88
2023-02-04T09:40:51.493Z,99496.56
2023-02-04T09:43:41.071Z,99502.19
2023-02-04T09:46:20.230Z,99504.41
2023-02-04T09:48:48.370Z,99508.59
2023-02-04T09:51:28.674Z,99510.34
2023-02-04T09:54:05.943Z,99513.03
2023-02-04T09:56:33.911Z,99515.34
2023-02-04T09:59:01.510Z,99519.47
2023-02-04T10:01:29.606Z,99521.38
2023-02-04T10:04:01.430Z,99518.75
2023-02-04T10:06:29.032Z,99528.38
2023-02-04T10:08:57.140Z,99525.97
2023-02-04T10:11:27.482Z,99537.41
2023-02-04T10:13:56.869Z,99533.44
2023-02-04T10:16:33.000Z,99523.41
2023-02-04T10:19:03.929Z,99530.44
2023-02-04T10:21:33.225Z,99520.44
2023-02-04T10:24:04.996Z,99528.19
2023-02-04T10:26:33.294Z,99532.28
2023-02-04T10:29:02.981Z,99529.94
2023-02-04T10:31:47.986Z,99521.13
2023-02-04T10:34:21.202Z,99540.34
2023-02-04T10:36:54.690Z,99531.03
2023-02-04T10:39:23.737Z,99527.78
2023-02-04T10:41:52.156Z,99545.91
2023-02-04T10:44:25.754Z,99549.88
2023-02-04T10:47:19.175Z,99551.69
2023-02-04T10:49:53.436Z,99541.25
2023-02-04T10:52:24.175Z,99538.91
2023-02-04T10:54:51.764Z,99540.97
2023-02-04T10:57:26.534Z,99545.59
2023-02-04T10:59:58.050Z,99537.81
2023-02-04T11:02:43.030Z,99544.03
2023-02-04T11:05:15.618Z,99549.22
2023-02-04T11:07:43.693Z,99546.94
2023-02-04T11:10:18.010Z,99554.34
2023-02-04T11:13:07.141Z,99554.22
2023-02-04T11:15:44.768Z,99555.41
2023-02-04T11:18:21.209Z,99550.94
2023-02-04T11:20:50.818Z,99561.16
2023-02-04T11:23:27.046Z,99560.75
2023-02-04T11:26:09.610Z,99562.84
2023-02-04T11:28:49.256Z,99560.63
2023-02-04T11:31:22.688Z,99559.56
2023-02-04T11:34:02.723Z,99561.00
2023-02-04T11:36:30.852Z,99563.13
2023-02-04T11:39:08.406Z,99564.28
2023-02-04T11:41:36.051Z,99567.19
2023-02-04T11:44:03.549Z,99565.59
2023-02-04T11:46:31.091Z,99569.72
2023-02-04T11:48:59.266Z,99570.56
2023-02-04T11:51:31.503Z,99566.63
2023-02-04T11:53:59.367Z,99567.47
2023-02-04T11:56:29.921Z,99567.19
2023-02-04T11:58:58.958Z,99572.00
2023-02-04T12:01:33.184Z,99568.34
2023-02-04T12:04:03.336Z,99567.22
2023-02-04T12:06:33.902Z,99570.84
2023-02-04T12:09:26.325Z,99576.00
2023-02-04T12:11:55.378Z,99572.50
2023-02-04T12:14:35.263Z,99575.19
2023-02-04T12:17:17.581Z,99578.59
2023-02-04T12:19:45.151Z,99582.22
2023-02-04T12:22:14.699Z,99588.28
2023-02-04T12:24:43.060Z,99583.28
2023-02-04T12:27:10.551Z,99596.03
2023-02-04T12:29:38.125Z,99588.22
2023-02-04T12:32:05.658Z,99591.25
2023-02-04T12:34:33.634Z,99588.50
2023-02-04T12:37:01.044Z,99586.13
2023-02-04T12:39:29.225Z,99583.84
2023-02-04T12:41:56.622Z,99583.59
2023-02-04T12:44:24.069Z,99587.88
2023-02-04T12:46:51.858Z,99583.63
2023-02-04T12:49:19.433Z,99581.19
2023-02-04T12:51:46.869Z,99584.63
2023-02-04T12:54:14.437Z,99577.81
2023-02-04T12:56:41.889Z,99573.78
2023-02-04T12:59:09.400Z,99580.84
2023-02-04T13:01:36.871Z,99581.69
2023-02-04T13:04:04.529Z,99593.75
2023-02-04T13:06:32.316Z,99594.44
2023-02-04T13:08:59.776Z,99588.25
2023-02-04T13:11:27.236Z,99585.59
2023-02-04T13:13:54.771Z,99576.69
2023-02-04T13:16:24.305Z,99586.34
2023-02-04T13:18:52.303Z,99589.09
2023-02-04T13:21:19.729Z,99581.63
2023-02-04T13:23:47.272Z,99596.09
2023-02-04T13:26:14.770Z,99589.59
2023-02-04T13:28:42.336Z,99594.16
2023-02-04T13:31:09.866Z,99599.16
2023-02-04T13:33:37.437Z,99603.41
2023-02-04T13:36:05.402Z,99603.28
2023-02-04T13:38:33.050Z,99612.28
2023-02-04T13:41:00.450Z,99610.47
2023-02-04T13:43:28.055Z,99611.91
2023-02-04T13:45:55.563Z,99609.38
2023-02-04T13:48:23.165Z,99604.03
2023-02-04T13:50:53.433Z,99609.34
2023-02-04T13:53:20.974Z,99610.31
2023-02-04T13:55:48.518Z,99599.09
2023-02-04T13:58:16.036Z,99599.72
2023-02-04T14:00:43.556Z,99597.34
2023-02-04T14:03:11.025Z,99599.22
2023-02-04T14:05:38.488Z,99591.25
2023-02-04T14:08:05.966Z,99595.63
2023-02-04T14:10:38.518Z,99592.84
2023-02-04T14:13:06.877Z,99598.72
2023-02-04T14:15:41.804Z,99604.38
2023-02-04T14:18:10.504Z,99608.03
2023-02-04T14:20:38.625Z,99619.69
2023-02-04T14:23:06.470Z,99617.38
2023-02-04T14:25:33.958Z,99616.13
2023-02-04T14:28:01.614Z,99616.38
2023-02-04T14:30:29.837Z,99616.78
2023-02-04T14:32:58.262Z,99617.94
2023-02-04T14:35:26.452Z,99621.66
2023-02-04T14:37:54.038Z,99627.03
2023-02-04T14:40:22.654Z,99610.97
2023-02-04T14:42:50.197Z,99621.22
2023-02-04T14:45:17.929Z,99631.00
2023-02-04T14:47:45.566Z,99625.53
2023-02-04T14:50:17.713Z,99636.78
2023-02-04T14:52:45.263Z,99640.66
2023-02-04T14:55:13.101Z,99637.34
2023-02-04T14:57:40.685Z,99636.94
2023-02-04T15:00:08.830Z,99640.91
2023-02-04T15:02:36.416Z,99643.53
2023-02-04T15:05:04.157Z,99634.41
2023-02-04T15:07:31.573Z,99636.25
2023-02-04T15:09:59.105Z,99632.78
2023-02-04T15:12:26.655Z,99622.88
2023-02-04T15:14:54.106Z,99618.50
2023-02-04T15:17:21.693Z,99618.25
2023-02-04T15:19:49.129Z,99618.25
2023-02-04T15:22:16.729Z,99615.63
2023-02-04T15:24:44.199Z,99613.41
2023-02-04T15:27:11.707Z,99612.78
2023-02-04T15:29:39.223Z,99613.44
2023-02-04T15:32:06.903Z,99615.16
2023-02-04T15:34:34.863Z,99614.84
2023-02-04T15:37:02.633Z,99622.00
2023-02-04T15:39:30.080Z,99621.44
2023-02-04T15:41:57.622Z,99633.91
2023-02-04T15:44:26.768Z,99634.97
2023-02-04T15:46:54.842Z,99637.13
2023-02-04T15:49:22.590Z,99638.47
2023-02-04T15:51:50.089Z,99627.28
2023-02-04T15:54:17.572Z,99630.97
2023-02-04T15:56:45.052Z,99633.59
2023-02-04T15:59:12.487Z,99639.78
2023-02-04T16:01:40.142Z,99649.22
2023-02-04T16:04:07.671Z,99650.56
2023-02-04T16:06:35.258Z,99647.69
2023-02-04T16:09:02.934Z,99653.44
2023-02-04T16:11:30.967Z,99662.19
2023-02-04T16:13:58.865Z,99660.66
2023-02-04T16:16:26.377Z,99669.94
2023-02-04T16:18:53.791Z,99668.28
2023-02-04T16:21:21.328Z,99665.91
2023-02-04T16:23:48.798Z,99673.06
2023-02-04T16:26:16.327Z,99675.59
2023-02-04T16:28:47.442Z,99674.66
2023-02-04T16:31:15.704Z,99674.50
2023-02-04T16:33:43.315Z,99679.03
2023-02-04T16:36:12.860Z,99681.47
2023-02-04T16:38:42.975Z,99680.84
2023-02-04T16:41:11.629Z,99683.50
2023-02-04T16:43:39.124Z,99682.66
2023-02-04T16:46:06.823Z,99684.31
2023-02-04T16:48:36.460Z,99680.88
2023-02-04T16:51:04.670Z,99699.94
2023-02-04T16:53:32.899Z,99696.00
2023-02-04T16:56:01.491Z,99687.19
2023-02-04T16:58:29.229Z,99697.47
2023-02-04T17:00:57.825Z,99695.44
2023-02-04T17:03:25.459Z,99697.47
2023-02-04T17:05:52.978Z,99695.19
2023-02-04T17:08:20.482Z,99700.44
2023-02-04T17:11:06.717Z,99699.84
2023-02-04T17:13:34.543Z,99705.41
2023-02-04T17:16:02.131Z,99704.38
2023-02-04T17:18:30.673Z,99710.28
2023-02-04T17:20:58.808Z,99712.81
2023-02-04T17:23:27.107Z,99720.16
2023-02-04T17:25:54.728Z,99723.50
2023-02-04T17:28:23.416Z,99715.38
2023-02-04T17:30:50.881Z,99713.72
2023-02-04T17:33:18.421Z,99724.69
2023-02-04T17:35:45.950Z,99714.50
2023-02-04T17:38:13.571Z,99722.38
2023-02-04T17:40:41.088Z,99720.22
2023-02-04T17:43:09.135Z,99724.31
2023-02-04T17:45:36.911Z,99727.63
2023-02-04T17:48:05.634Z,99721.53
2023-02-04T17:53:10.586Z,99724.25
2023-02-04T17:55:39.462Z,99717.59
2023-02-04T17:58:21.571Z,99717.06
2023-02-04T18:00:50.128Z,99714.47
2023-02-04T18:03:23.764Z,99721.72
2023-02-04T18:05:52.268Z,99719.41
2023-02-04T18:08:22.356Z,99717.16
2023-02-04T18:10:52.102Z,99718.94
2023-02-04T18:13:25.032Z,99717.16
2023-02-04T18:15:56.481Z,99727.41
2023-02-04T18:18:44.243Z,99727.84
2023-02-04T18:21:19.076Z,99732.97
2023-02-04T18:23:47.639Z,99735.50
2023-02-04T18:26:23.133Z,99722.84
2023-02-04T18:28:51.065Z,99736.56
2023-02-04T18:31:37.454Z,99727.94
2023-02-04T18:34:38.360Z,99732.38
2023-02-04T18:37:24.506Z,99728.09
2023-02-04T18:39:57.752Z,99731.22
2023-02-04T18:42:27.117Z,99732.03
2023-02-04T18:44:56.914Z,99727.13
2023-02-04T18:47:33.725Z,99725.25
2023-02-04T18:50:12.738Z,99729.41
2023-02-04T18:52:40.358Z,99722.94
2023-02-04T18:55:43.574Z,99725.06
2023-02-04T18:58:17.131Z,99725.91
2023-02-04T19:00:49.181Z,99718.38
2023-02-04T19:03:28.557Z,99720.53
2023-02-04T19:05:59.197Z,99718.53
2023-02-04T19:08:42.926Z,99724.00
2023-02-04T19:11:34.022Z,99728.16
2023-02-04T19:14:02.752Z,99732.94
2023-02-04T19:16:37.058Z,99730.09
2023-02-04T19:19:39.469Z,99735.34
2023-02-04T19:22:40.736Z,99740.56
2023-02-04T19:25:29.819Z,99741.63
2023-02-04T19:28:00.320Z,99748.75
2023-02-04T19:30:27.826Z,99746.97
2023-02-04T19:32:57.652Z,99752.56
2023-02-04T19:35:28.335Z,99756.97
2023-02-04T19:38:12.541Z,99750.25
2023-02-04T19:40:42.957Z,99760.41
2023-02-04T19:43:22.211Z,99773.38
2023-02-04T19:45:51.223Z,99772.69
2023-02-04T19:48:24.814Z,99765.66
2023-02-04T19:50:53.439Z,99763.69
2023-02-04T19:53:26.140Z,99768.81
2023-02-04T19:55:54.648Z,99771.66
2023-02-04T19:58:36.681Z,99774.16
2023-02-04T20:01:08.461Z,99775.75
2023-02-04T20:03:47.388Z,99774.34
2023-02-04T20:06:26.513Z,99772.47
2023-02-04T20:09:02.170Z,99773.66
2023-02-04T20:11:35.375Z,99780.47
2023-02-04T20:14:14.859Z,99773.91
2023-02-04T20:17:00.390Z,99779.22
2023-02-04T20:19:30.749Z,99783.13
2023-02-04T20:22:07.494Z,99776.19
2023-02-04T20:24:37.389Z,99785.13
2023-02-04T20:27:26.341Z,99790.06
2023-02-04T20:30:01.270Z,99792.56
2023-02-04T20:32:30.299Z,99792.78
2023-02-04T20:35:21.051Z,99794.38
2023-02-04T20:37:54.233Z,99813.63
2023-02-04T20:40:29.284Z,99821.91
2023-02-04T20:43:12.165Z,99819.78
2023-02-04T20:46:01.812Z,99835.28
2023-02-04T20:48:35.331Z,99833.22
2023-02-04T20:51:04.883Z,99843.25
2023-02-04T20:53:39.089Z,99845.66
2023-02-04T20:56:27.074Z,99855.34
2023-02-04T20:58:56.673Z,99849.72
2023-02-04T21:01:34.090Z,99856.00
2023-02-04T21:04:39.566Z,99854.53
2023-02-04T21:07:22.656Z,99859.47
2023-02-04T21:09:51.788Z,99857.34
2023-02-04T21:12:19.755Z,99857.34
2023-02-04T21:14:47.340Z,99863.41
2023-02-04T21:17:14.719Z,99863.28
2023-02-04T21:19:42.298Z,99861.00
2023-02-04T21:22:09.676Z,99866.63
2023-02-04T21:24:37.242Z,99866.78
2023-02-04T21:27:04.732Z,99869.69
2023-02-04T21:29:32.287Z,99875.75
2023-02-04T21:31:59.798Z,99875.34
2023-02-04T21:34:27.292Z,99876.19
2023-02-04T21:36:54.692Z,99888.13
2023-02-04T21:39:22.340Z,99889.44
2023-02-04T21:42:09.668Z,99884.09
2023-02-04T21:44:37.890Z,99888.94
2023-02-04T21:47:05.821Z,99888.09
2023-02-04T21:49:33.301Z,99889.75
2023-02-04T21:52:00.737Z,99890.56
2023-02-04T21:54:28.231Z,99893.72
2023-02-04T21:56:55.764Z,99891.31
2023-02-04T21:59:25.280Z,99884.91
2023-02-04T22:01:52.812Z,99879.28
2023-02-04T22:04:20.250Z,99878.19
2023-02-04T22:06:47.588Z,99889.19
2023-02-04T22:09:16.229Z,99880.19
2023-02-04T22:11:43.876Z,99882.78
2023-02-04T22:14:11.312Z,99888.16
2023-02-04T22:16:38.728Z,99888.47
2023-02-04T22:19:06.217Z,99892.28
2023-02-04T22:21:34.955Z,99896.31
2023-02-04T22:24:02.477Z,99896.06
2023-02-04T22:26:29.924Z,99891.84
2023-02-04T22:28:57.546Z,99896.88
2023-02-04T22:31:25.384Z,99892.22
2023-02-04T22:33:52.827Z,99893.06
2023-02-04T22:36:20.256Z,99896.91
2023-02-04T22:38:47.926Z,99891.16
2023-02-04T22:41:15.360Z,99896.44
2023-02-04T22:43:42.903Z,99895.69
2023-02-04T22:46:10.381Z,99901.94
2023-02-04T22:48:37.839Z,99902.50
2023-02-04T22:51:05.341Z,99900.28
2023-02-04T22:53:32.859Z,99901.31
2023-02-04T22:56:00.292Z,99902.44
2023-02-04T22:58:28.028Z,99904.94
2023-02-04T23:00:55.568Z,99896.09
2023-02-04T23:03:23.055Z,99903.09
2023-02-04T23:05:50.504Z,99902.50
2023-02-04T23:08:20.943Z,99903.66
2023-02-04T23:10:48.435Z,99901.53
2023-02-04T23:13:16.722Z,99904.13
2023-02-04T23:15:44.712Z,99907.97
2023-02-04T23:18:12.100Z,99907.78
2023-02-04T23:20:40.682Z,99906.44
2023-02-04T23:23:10.626Z,99914.56
2023-02-04T23:25:38.088Z,99922.00
2023-02-04T23:28:05.793Z,99917.09
2023-02-04T23:30:33.382Z,99924.81
2023-02-04T23:33:01.108Z,99923.13
2023-02-04T23:35:28.828Z,99930.59
2023-02-04T23:37:56.463Z,99921.94
2023-02-04T23:40:24.200Z,99920.72
2023-02-04T23:42:51.765Z,99925.75
2023-02-04T23:45:20.482Z,99918.28
2023-02-04T23:47:47.927Z,99910.47
2023-02-04T23:50:16.006Z,99921.34
2023-02-04T23:52:43.586Z,99920.69
2023-02-04T23:55:11.247Z,99920.03
2023-02-04T23:57:38.668Z,99922.06
